• Join FlightAware (Why Join?)
  • Login
  • US Flag 
01:36PM EDT


 

Airport Tracker/Info


-or-


 

Live Flight TrackerFlight Track Log ✈ N137TK ✈ 16-Oct-2013 ✈ KNEW - KAPF

Flight Track Log - Related Links

Times and Time Zones

All times are in EDT time to prevent confusion due to time zone crossing. See the N137TK flight status page for this flight to view local times or setup timezone preferences in your user account.

Time Position Orientation Groundspeed Altitude Reporting Facility
EDT Latitude Longitude Course Direction KTS MPH feet Rate Location/Type
01:08PM 30.0317 -90.0308 182° South 167 192 500  Level Houston Center
01:09PM 29.9839 -90.0328 182° South 146 168 2,800 1,920 Climbing Houston Center
01:10PM 29.9733 -90.0333 183° South 155 178 3,300 2,100 Climbing Houston Center
01:11PM 29.9331 -90.0156 159° South 173 199 5,200 1,920 Climbing Houston Center
01:11PM 29.9300 -90.0147 167° South 163 188 5,300 1,680 Climbing Houston Center
01:12PM 29.8839 -89.9928 158° South 173 199 7,200 1,740 Climbing Houston Center
01:13PM 29.8378 -89.9692 156° South 178 205 9,000 1,680 Climbing Houston Center
01:14PM 29.7892 -89.9458 157° South 183 211 10,700 1,560 Climbing Houston Center
01:15PM 29.7400 -89.9233 158° South 187 215 12,300 1,680 Climbing Houston Center
01:16PM 29.6961 -89.8653 131° Southeast 203 234 14,200 1,500 Climbing Houston Center
01:17PM 29.6611 -89.8144 128° Southeast 202 232 15,500 1,260 Climbing Houston Center
01:18PM 29.6236 -89.7606 129° Southeast 208 239 16,800 1,200 Climbing Houston Center
01:19PM 29.5864 -89.7067 128° Southeast 212 244 18,000 1,200 Climbing Houston Center
01:20PM 29.5494 -89.6522 128° Southeast 215 247 19,300 1,200 Climbing Houston Center
01:21PM 29.5108 -89.5981 129° Southeast 217 250 20,500 1,260 Climbing Houston Center
01:22PM 29.4664 -89.5308 127° Southeast 219 252 22,000 1,200 Climbing Houston Center
01:23PM 29.4294 -89.4775 128° Southeast 215 247 23,100 1,020 Climbing Houston Center
01:24PM 29.3925 -89.4239 128° Southeast 216 249 24,100 1,020 Climbing Houston Center
01:25PM 29.3544 -89.3703 129° Southeast 217 250 25,200 1,020 Climbing Houston Center
01:26PM 29.3181 -89.3175 128° Southeast 214 246 26,300 840 Climbing Houston Center
01:27PM 29.2806 -89.2647 129° Southeast 213 245 27,000 300 Climbing Houston Center
01:28PM 29.2381 -89.2050 129° Southeast 231 266 27,000  Level Houston Center
01:29PM 29.1800 -89.1206 128° Southeast 274 315 27,000  Level Houston Center
01:30PM 29.1294 -89.0486 129° Southeast 286 329 27,000  Level Houston Center
01:31PM 29.0781 -88.9758 129° Southeast 292 336 27,000  Level Houston Center
01:32PM 29.0267 -88.9019 128° Southeast 295 339 27,000  Level Houston Center
01:33PM 28.9742 -88.8300 130° Southeast 296 341 27,000  Level Houston Center
01:34PM 28.9231 -88.7564 128° Southeast 296 341 27,000  Level Houston Center
01:35PM 28.8767 -88.6808 125° Southeast 294 338 27,000  Level Houston Center
01:36PM 28.8478 -88.5711 107° East 296 341 27,000  Level Houston Center
01:37PM 28.8228 -88.4803 107° East 299 344 27,000  Level Houston Center
01:38PM 28.7975 -88.3917 108° East 297 342 27,000  Level Houston Center
01:39PM 28.7736 -88.3022 107° East 296 341 27,000  Level Houston Center
01:40PM 28.7489 -88.2139 108° East 295 339 27,000  Level Houston Center
01:41PM 28.7236 -88.1239 108° East 297 342 27,000  Level Houston Center
01:43PM 28.6947 -88.0242 108° East 297 342 27,000  Level Houston Center
01:44PM 28.6703 -87.9333 107° East 298 343 27,000  Level Houston Center
01:45PM 28.6442 -87.8444 108° East 299 344 27,000  Level Houston Center
01:46PM 28.6194 -87.7550 107° East 297 342 27,000  Level Houston Center
01:47PM 28.5936 -87.6658 108° East 297 342 27,000  Level Houston Center
01:48PM 28.5675 -87.5772 109° East 297 342 27,000  Level Houston Center
01:49PM 28.5389 -87.4728 107° East 292 336 27,000  Level Houston Center
01:50PM 28.5125 -87.3844 109° East 294 338 27,000  Level Houston Center
01:51PM 28.4878 -87.2964 108° East 294 338 27,000  Level Houston Center
01:52PM 28.4639 -87.2100 107° East 290 334 27,000  Level Houston Center
01:53PM 28.4383 -87.1231 108° East 290 334 27,000  Level Houston Center
01:54PM 28.4033 -87.0103 109° East 300 345 27,000  Level Jacksonville Center
01:55PM 28.3808 -86.9314 108° East 292 336 27,000  Level Jacksonville Center
01:56PM 28.3564 -86.8433 107° East 285 328 27,000  Level Jacksonville Center
01:57PM 28.3339 -86.7575 107° East 293 337 27,000  Level Jacksonville Center
01:58PM 28.3053 -86.6667 110° East 286 329 27,000  Level Jacksonville Center
01:59PM 28.2786 -86.5764 109° East 298 343 27,000  Level Jacksonville Center
02:00PM 28.2558 -86.4978 108° East 285 328 27,000  Level Jacksonville Center
02:01PM 28.2292 -86.4094 109° East 290 334 27,000  Level Jacksonville Center
02:02PM 28.2044 -86.3217 108° East 290 334 27,000  Level Jacksonville Center
02:03PM 28.1775 -86.2336 109° East 285 328 27,000  Level Jacksonville Center
02:04PM 28.1547 -86.1506 107° East 288 331 27,000  Level Jacksonville Center
02:05PM 28.1278 -86.0603 109° East 294 338 27,000  Level Jacksonville Center
02:06PM 28.1006 -85.9769 110° East 289 333 27,000  Level Jacksonville Center
02:07PM 28.0753 -85.8917 109° East 284 327 27,000  Level Jacksonville Center
02:08PM 28.0503 -85.8014 107° East 290 334 27,000  Level Jacksonville Center
02:10PM 27.9989 -85.6350 109° East 280 322 27,000  Level Miami Center
02:11PM 27.9750 -85.5486 107° East 280 322 27,000  Level Miami Center
02:12PM 27.9522 -85.4742 109° East 286 329 27,000  Level Miami Center
02:13PM 27.9153 -85.3611 110° East 302 348 27,000  Level Miami Center
02:14PM 27.8911 -85.2772 108° East 293 337 27,000  Level Miami Center
02:15PM 27.8919 -85.1906 89° East 293 337 27,000  Level Miami Center
02:16PM 27.8931 -85.0992 89° East 287 330 27,000 -120 Level Miami Center
02:17PM 27.8922 -85.0053 91° East 287 330 26,800 -600 Descending Miami Center
02:18PM 27.8928 -84.9211 90° East 292 336 25,800 -1,080 Descending Miami Center
02:19PM 27.8900 -84.8200 92° East 310 357 24,700 -1,140 Descending Miami Center
02:20PM 27.8958 -84.7172 86° East 320 368 23,600 -1,140 Descending Miami Center
02:21PM 27.8972 -84.6164 89° East 325 374 22,500 -1,080 Descending Miami Center
02:22PM 27.8964 -84.5153 91° East 325 374 21,500 -1,080 Descending Miami Center
02:23PM 27.8994 -84.4172 88° East 325 374 20,400 -1,140 Descending Miami Center
02:24PM 27.8983 -84.3183 91° East 325 374 19,300 -1,080 Descending Miami Center
02:25PM 27.8950 -84.2197 92° East 320 368 18,300 -1,080 Descending Miami Center
02:26PM 27.9044 -84.1194 84° East 314 361 17,200 -1,080 Descending Miami Center
02:27PM 27.9069 -84.0233 88° East 308 354 16,200 -1,020 Descending Miami Center
02:28PM 27.9056 -83.9294 91° East 303 349 15,200 -1,020 Descending Miami Center
02:29PM 27.9100 -83.8381 87° East 298 343 14,200 -1,020 Descending Miami Center
02:30PM 27.9058 -83.7486 93° East 288 331 13,200 -1,020 Descending Miami Center
02:31PM 27.9081 -83.6575 88° East 288 331 12,200 -960 Descending Miami Center
02:32PM 27.9103 -83.5683 88° East 288 331 11,300 -960 Descending Miami Center
02:33PM 27.9083 -83.4767 91° East 288 331 10,300 -900 Descending Miami Center
02:34PM 27.9114 -83.4086 87° East 288 331 9,600 -900 Descending Miami Center
02:35PM 27.9117 -83.3078 90° East 275 316 8,500 -1,020 Descending Miami Center
02:36PM 27.9133 -83.2233 89° East 270 311 7,600 -840 Descending Miami Center
02:37PM 27.9211 -83.1439 84° East 270 311 6,900 -660 Descending Miami Center
02:38PM 27.9536 -83.0706 63° Northeast 258 297 6,300 -840 Descending Miami Center
02:39PM 27.9858 -82.9950 64° Northeast 258 297 5,300 -720 Descending Miami Center
02:40PM 28.0181 -82.9261 62° Northeast 258 297 4,900 -660 Descending Miami Center
02:41PM 28.0458 -82.8617 64° Northeast 234 269 4,000 -1,080 Descending Miami Center
02:42PM 28.0667 -82.8167 62° Northeast 218 251 3,200 -660 Descending Tampa TRACON
02:43PM 28.0667 -82.7500 90° East 218 251 3,000 -120 Descending Tampa TRACON
02:44PM 28.0833 -82.6833 74° East 239 275 3,000 -300 Level Tampa TRACON
02:44PM 28.0833 -82.6167 90° East 209 241 2,500 -540 Descending Tampa TRACON
02:45PM 28.0667 -82.5667 111° Southeast 169 194 2,000 -540 Descending Tampa TRACON
02:46PM 28.0500 -82.5333 120° Southeast 145 167 1,500 -720 Descending Tampa TRACON
02:47PM 28.0167 -82.5333 180° South 139 160 700 -840 Descending Tampa TRACON
02:49PM 27.9368 -82.5733 204° Southwest  Level FlightAware Approximate
02:56PM 27.9283 -82.5320 19° North  Level FlightAware Approximate
02:57PM 27.9667 -82.5167 19° North  Level FlightAware Approximate
02:58PM 27.8974 -82.4879 19° North  Level Estimated
02:59PM 27.9667 -82.5167 19° North  Level FlightAware Approximate
03:00PM 27.8974 -82.4879 19° North  Level Estimated
03:01PM 27.9667 -82.5167 19° North  Level FlightAware Approximate
03:02PM 27.8974 -82.4879 19° North  Level Estimated
03:03PM 27.9667 -82.5167 19° North  Level FlightAware Approximate
03:04PM 27.8974 -82.4879 19° North  Level Estimated
03:05PM 27.9667 -82.5167 19° North  Level FlightAware Approximate
03:06PM 27.8974 -82.4879 19° North  Level Estimated
03:07PM 27.9667 -82.5167 19° North  Level FlightAware Approximate
03:08PM 27.8974 -82.4879 19° North  Level Estimated
03:09PM 27.9667 -82.5167 19° North  Level FlightAware Approximate
03:10PM 27.8974 -82.4879 19° North  Level Estimated
03:11PM 27.9667 -82.5167 19° North  Level FlightAware Approximate
03:12PM 27.8974 -82.4879 19° North  Level Estimated
03:13PM 27.9667 -82.5167 19° North  Level FlightAware Approximate
03:14PM 27.8974 -82.4879 19° North  Level Estimated